sensor_id;sensor_type;location;lat;lon;timestamp;pressure;altitude;pressure_sealevel;temperature;humidity
12951;BME280;6540;50.858;7.232;2023-10-31T00:01:04;51898.94;;;-142.34;31.76
12951;BME280;6540;50.858;7.232;2023-10-31T00:03:31;51870.69;;;-142.34;32.03
12951;BME280;6540;50.858;7.232;2023-10-31T00:05:56;51882.78;;;-142.34;32.09
12951;BME280;6540;50.858;7.232;2023-10-31T00:08:21;51884.81;;;-142.34;31.57
12951;BME280;6540;50.858;7.232;2023-10-31T00:10:47;51876.72;;;-142.34;32.12
12951;BME280;6540;50.858;7.232;2023-10-31T00:13:12;51880.78;;;-142.34;32.93
12951;BME280;6540;50.858;7.232;2023-10-31T00:15:37;51919.09;;;-142.34;32.70
12951;BME280;6540;50.858;7.232;2023-10-31T00:18:03;51909.00;;;-142.34;32.23
12951;BME280;6540;50.858;7.232;2023-10-31T00:20:28;51904.97;;;-142.34;33.24
12951;BME280;6540;50.858;7.232;2023-10-31T00:22:54;51882.78;;;-142.34;33.10
12951;BME280;6540;50.858;7.232;2023-10-31T00:25:19;51898.94;;;-142.34;33.39
12951;BME280;6540;50.858;7.232;2023-10-31T00:27:45;51896.91;;;-142.34;33.80
12951;BME280;6540;50.858;7.232;2023-10-31T00:30:10;51902.97;;;-142.34;32.81
12951;BME280;6540;50.858;7.232;2023-10-31T00:32:36;51917.06;;;-142.34;33.22
12951;BME280;6540;50.858;7.232;2023-10-31T00:35:01;51882.78;;;-142.34;33.80
12951;BME280;6540;50.858;7.232;2023-10-31T00:37:27;51886.81;;;-142.34;33.13
12951;BME280;6540;50.858;7.232;2023-10-31T00:39:52;51927.16;;;-142.34;33.17
12951;BME280;6540;50.858;7.232;2023-10-31T00:42:17;51882.78;;;-142.34;31.77
12951;BME280;6540;50.858;7.232;2023-10-31T00:44:43;51880.78;;;-142.34;31.75
12951;BME280;6540;50.858;7.232;2023-10-31T00:47:09;51898.94;;;-142.34;32.01
12951;BME280;6540;50.858;7.232;2023-10-31T00:49:35;51890.84;;;-142.34;31.80
12951;BME280;6540;50.858;7.232;2023-10-31T00:52:00;51902.97;;;-142.34;31.13
12951;BME280;6540;50.858;7.232;2023-10-31T00:54:26;51890.84;;;-142.34;31.04
12951;BME280;6540;50.858;7.232;2023-10-31T00:56:51;51894.88;;;-142.34;32.03
12951;BME280;6540;50.858;7.232;2023-10-31T00:59:16;51876.72;;;-142.34;32.01
12951;BME280;6540;50.858;7.232;2023-10-31T01:01:43;51892.88;;;-142.34;32.28
12951;BME280;6540;50.858;7.232;2023-10-31T01:04:08;51854.53;;;-142.34;32.36
12951;BME280;6540;50.858;7.232;2023-10-31T01:06:40;51874.72;;;-142.34;33.32
12951;BME280;6540;50.858;7.232;2023-10-31T01:09:05;51923.13;;;-142.34;33.76
12951;BME280;6540;50.858;7.232;2023-10-31T01:11:31;51909.00;;;-142.34;33.19
12951;BME280;6540;50.858;7.232;2023-10-31T01:13:56;51884.81;;;-142.34;33.94
12951;BME280;6540;50.858;7.232;2023-10-31T01:16:21;51939.28;;;-142.34;34.50
12951;BME280;6540;50.858;7.232;2023-10-31T01:18:47;51911.03;;;-142.34;32.45
12951;BME280;6540;50.858;7.232;2023-10-31T01:21:12;51919.09;;;-142.34;32.33
12951;BME280;6540;50.858;7.232;2023-10-31T01:23:37;51939.28;;;-142.34;32.93
12951;BME280;6540;50.858;7.232;2023-10-31T01:26:03;51919.09;;;-142.34;33.15
12951;BME280;6540;50.858;7.232;2023-10-31T01:28:28;51909.00;;;-142.34;33.63
12951;BME280;6540;50.858;7.232;2023-10-31T01:30:53;51927.16;;;-142.34;33.00
12951;BME280;6540;50.858;7.232;2023-10-31T01:33:19;51931.19;;;-142.34;33.39
12951;BME280;6540;50.858;7.232;2023-10-31T01:35:44;51923.13;;;-142.34;33.49
12951;BME280;6540;50.858;7.232;2023-10-31T01:38:09;51911.03;;;-142.34;33.21
12951;BME280;6540;50.858;7.232;2023-10-31T01:40:35;51902.97;;;-142.34;33.20
12951;BME280;6540;50.858;7.232;2023-10-31T01:43:01;51947.34;;;-142.34;31.58
12951;BME280;6540;50.858;7.232;2023-10-31T01:45:26;51902.97;;;-142.34;31.32
12951;BME280;6540;50.858;7.232;2023-10-31T01:47:51;51911.03;;;-142.34;31.13
12951;BME280;6540;50.858;7.232;2023-10-31T01:50:17;51917.06;;;-142.34;31.40
12951;BME280;6540;50.858;7.232;2023-10-31T01:52:43;51894.88;;;-142.34;32.76
12951;BME280;6540;50.858;7.232;2023-10-31T01:55:10;51911.03;;;-142.34;32.17
12951;BME280;6540;50.858;7.232;2023-10-31T01:57:36;51898.94;;;-142.34;31.38
12951;BME280;6540;50.858;7.232;2023-10-31T02:00:01;51915.06;;;-142.34;31.27
12951;BME280;6540;50.858;7.232;2023-10-31T02:02:27;51882.78;;;-142.34;31.01
12951;BME280;6540;50.858;7.232;2023-10-31T02:04:53;51931.19;;;-142.34;31.53
12951;BME280;6540;50.858;7.232;2023-10-31T02:07:18;51878.75;;;-142.34;30.75
12951;BME280;6540;50.858;7.232;2023-10-31T02:09:43;51896.91;;;-142.34;30.81
12951;BME280;6540;50.858;7.232;2023-10-31T02:12:09;51894.88;;;-142.34;30.88
12951;BME280;6540;50.858;7.232;2023-10-31T02:14:34;51898.94;;;-142.34;30.87
12951;BME280;6540;50.858;7.232;2023-10-31T02:17:00;51886.81;;;-142.34;30.92
12951;BME280;6540;50.858;7.232;2023-10-31T02:19:25;51923.13;;;-142.34;30.86
12951;BME280;6540;50.858;7.232;2023-10-31T02:21:50;51898.94;;;-142.34;30.90
12951;BME280;6540;50.858;7.232;2023-10-31T02:24:16;51890.84;;;-142.34;31.08
12951;BME280;6540;50.858;7.232;2023-10-31T02:26:41;51890.84;;;-142.34;31.26
12951;BME280;6540;50.858;7.232;2023-10-31T02:29:06;51919.09;;;-142.34;31.36
12951;BME280;6540;50.858;7.232;2023-10-31T02:31:32;51935.25;;;-142.34;31.23
12951;BME280;6540;50.858;7.232;2023-10-31T02:33:57;51892.88;;;-142.34;31.38
12951;BME280;6540;50.858;7.232;2023-10-31T02:36:23;51919.09;;;-142.34;31.79
12951;BME280;6540;50.858;7.232;2023-10-31T02:38:48;51890.84;;;-142.34;31.60
12951;BME280;6540;50.858;7.232;2023-10-31T02:41:14;51939.28;;;-142.34;31.87
12951;BME280;6540;50.858;7.232;2023-10-31T02:43:40;51921.13;;;-142.34;31.83
12951;BME280;6540;50.858;7.232;2023-10-31T02:46:06;51921.13;;;-142.34;32.28
12951;BME280;6540;50.858;7.232;2023-10-31T02:48:31;51898.94;;;-142.34;32.00
12951;BME280;6540;50.858;7.232;2023-10-31T02:51:06;51874.72;;;-142.34;31.13
12951;BME280;6540;50.858;7.232;2023-10-31T02:53:32;51872.69;;;-142.34;31.09
12951;BME280;6540;50.858;7.232;2023-10-31T02:55:58;51915.06;;;-142.34;31.90
12951;BME280;6540;50.858;7.232;2023-10-31T02:58:24;51862.63;;;-142.34;31.38
12951;BME280;6540;50.858;7.232;2023-10-31T03:00:49;51890.84;;;-142.34;31.86
12951;BME280;6540;50.858;7.232;2023-10-31T03:03:15;51874.72;;;-142.34;31.33
12951;BME280;6540;50.858;7.232;2023-10-31T03:05:41;51909.00;;;-142.34;32.03
12951;BME280;6540;50.858;7.232;2023-10-31T03:08:06;51900.94;;;-142.34;31.99
12951;BME280;6540;50.858;7.232;2023-10-31T03:10:33;51909.00;;;-142.34;32.62
12951;BME280;6540;50.858;7.232;2023-10-31T03:12:58;51900.94;;;-142.34;32.47
12951;BME280;6540;50.858;7.232;2023-10-31T03:15:24;51896.91;;;-142.34;32.33
12951;BME280;6540;50.858;7.232;2023-10-31T03:17:49;51902.97;;;-142.34;31.45
12951;BME280;6540;50.858;7.232;2023-10-31T03:20:15;51882.78;;;-142.34;31.92
12951;BME280;6540;50.858;7.232;2023-10-31T03:22:40;51886.81;;;-142.34;31.94
12951;BME280;6540;50.858;7.232;2023-10-31T03:25:06;51886.81;;;-142.34;31.99
12951;BME280;6540;50.858;7.232;2023-10-31T03:27:31;51933.22;;;-142.34;31.82
12951;BME280;6540;50.858;7.232;2023-10-31T03:29:57;51919.09;;;-142.34;31.92
12951;BME280;6540;50.858;7.232;2023-10-31T03:32:22;51921.13;;;-142.34;32.24
12951;BME280;6540;50.858;7.232;2023-10-31T03:34:48;51886.81;;;-142.34;32.64
12951;BME280;6540;50.858;7.232;2023-10-31T03:37:13;51890.84;;;-142.34;32.16
12951;BME280;6540;50.858;7.232;2023-10-31T03:39:38;51898.94;;;-142.34;33.05
12951;BME280;6540;50.858;7.232;2023-10-31T03:42:04;51902.97;;;-142.34;32.86
12951;BME280;6540;50.858;7.232;2023-10-31T03:44:30;51913.03;;;-142.34;32.17
12951;BME280;6540;50.858;7.232;2023-10-31T03:46:56;51949.34;;;-142.34;32.24
12951;BME280;6540;50.858;7.232;2023-10-31T03:49:21;51890.84;;;-142.34;31.83
12951;BME280;6540;50.858;7.232;2023-10-31T03:51:46;51913.03;;;-142.34;32.05
12951;BME280;6540;50.858;7.232;2023-10-31T03:54:12;51921.13;;;-142.34;32.15
12951;BME280;6540;50.858;7.232;2023-10-31T03:56:41;51915.06;;;-142.34;31.65
12951;BME280;6540;50.858;7.232;2023-10-31T03:59:07;51900.94;;;-142.34;31.21
12951;BME280;6540;50.858;7.232;2023-10-31T04:01:32;51941.28;;;-142.34;31.50
12951;BME280;6540;50.858;7.232;2023-10-31T04:03:57;51888.84;;;-142.34;31.57
12951;BME280;6540;50.858;7.232;2023-10-31T04:06:23;51907.00;;;-142.34;31.75
12951;BME280;6540;50.858;7.232;2023-10-31T04:08:48;51896.91;;;-142.34;31.62
12951;BME280;6540;50.858;7.232;2023-10-31T04:11:13;51886.81;;;-142.34;33.00
12951;BME280;6540;50.858;7.232;2023-10-31T04:13:39;51909.00;;;-142.34;32.45
12951;BME280;6540;50.858;7.232;2023-10-31T04:16:04;51935.25;;;-142.34;31.68
12951;BME280;6540;50.858;7.232;2023-10-31T04:18:30;51927.16;;;-142.34;32.72
12951;BME280;6540;50.858;7.232;2023-10-31T04:20:55;51894.88;;;-142.34;31.74
12951;BME280;6540;50.858;7.232;2023-10-31T04:23:20;51927.16;;;-142.34;32.62
12951;BME280;6540;50.858;7.232;2023-10-31T04:25:46;51902.97;;;-142.34;31.55
12951;BME280;6540;50.858;7.232;2023-10-31T04:28:11;51896.91;;;-142.34;31.82
12951;BME280;6540;50.858;7.232;2023-10-31T04:30:38;51909.00;;;-142.34;31.35
12951;BME280;6540;50.858;7.232;2023-10-31T04:33:03;51923.13;;;-142.34;31.67
12951;BME280;6540;50.858;7.232;2023-10-31T04:35:29;51911.03;;;-142.34;31.46
12951;BME280;6540;50.858;7.232;2023-10-31T04:37:54;51907.00;;;-142.34;31.99
12951;BME280;6540;50.858;7.232;2023-10-31T04:40:22;51931.19;;;-142.34;31.48
12951;BME280;6540;50.858;7.232;2023-10-31T04:42:47;51921.13;;;-142.34;32.04
12951;BME280;6540;50.858;7.232;2023-10-31T04:45:13;51874.72;;;-142.34;31.43
12951;BME280;6540;50.858;7.232;2023-10-31T04:47:38;51917.06;;;-142.34;31.71
12951;BME280;6540;50.858;7.232;2023-10-31T04:50:04;51830.34;;;-142.34;31.17
12951;BME280;6540;50.858;7.232;2023-10-31T04:52:29;51884.81;;;-142.34;31.45
12951;BME280;6540;50.858;7.232;2023-10-31T04:54:56;51880.78;;;-142.34;31.45
12951;BME280;6540;50.858;7.232;2023-10-31T04:57:22;51915.06;;;-142.34;31.40
12951;BME280;6540;50.858;7.232;2023-10-31T04:59:50;51870.69;;;-142.34;31.30
12951;BME280;6540;50.858;7.232;2023-10-31T05:02:16;51870.69;;;-142.34;30.92
12951;BME280;6540;50.858;7.232;2023-10-31T05:04:41;51882.78;;;-142.34;31.36
12951;BME280;6540;50.858;7.232;2023-10-31T05:07:10;51896.91;;;-142.34;31.17
12951;BME280;6540;50.858;7.232;2023-10-31T05:09:37;51935.25;;;-142.34;31.19
12951;BME280;6540;50.858;7.232;2023-10-31T05:12:06;51886.81;;;-142.34;31.70
12951;BME280;6540;50.858;7.232;2023-10-31T05:14:31;51882.78;;;-142.34;31.16
12951;BME280;6540;50.858;7.232;2023-10-31T05:16:57;51911.03;;;-142.34;31.49
12951;BME280;6540;50.858;7.232;2023-10-31T05:19:22;51898.94;;;-142.34;31.73
12951;BME280;6540;50.858;7.232;2023-10-31T05:21:47;51933.22;;;-142.34;31.64
12951;BME280;6540;50.858;7.232;2023-10-31T05:24:13;51898.94;;;-142.34;31.39
12951;BME280;6540;50.858;7.232;2023-10-31T05:26:39;51902.97;;;-142.34;30.90
12951;BME280;6540;50.858;7.232;2023-10-31T05:29:05;51911.03;;;-142.34;31.38
12951;BME280;6540;50.858;7.232;2023-10-31T05:31:30;51902.97;;;-142.34;31.91
12951;BME280;6540;50.858;7.232;2023-10-31T05:33:56;51919.09;;;-142.34;31.82
12951;BME280;6540;50.858;7.232;2023-10-31T05:36:22;51947.34;;;-142.34;31.43
12951;BME280;6540;50.858;7.232;2023-10-31T05:38:48;51894.88;;;-142.34;31.88
12951;BME280;6540;50.858;7.232;2023-10-31T05:41:14;51896.91;;;-142.34;31.57
12951;BME280;6540;50.858;7.232;2023-10-31T05:43:40;51919.09;;;-142.34;31.97
12951;BME280;6540;50.858;7.232;2023-10-31T05:46:05;51927.16;;;-142.34;31.55
12951;BME280;6540;50.858;7.232;2023-10-31T05:48:31;51919.09;;;-142.34;31.82
12951;BME280;6540;50.858;7.232;2023-10-31T05:50:57;51921.13;;;-142.34;32.27
12951;BME280;6540;50.858;7.232;2023-10-31T05:53:22;51925.16;;;-142.34;32.51
12951;BME280;6540;50.858;7.232;2023-10-31T05:55:47;51917.06;;;-142.34;31.49
12951;BME280;6540;50.858;7.232;2023-10-31T05:58:13;51959.44;;;-142.34;31.82
12951;BME280;6540;50.858;7.232;2023-10-31T06:00:38;51937.25;;;-142.34;32.28
12951;BME280;6540;50.858;7.232;2023-10-31T06:03:03;51919.09;;;-142.34;31.94
12951;BME280;6540;50.858;7.232;2023-10-31T06:05:29;51949.34;;;-142.34;31.06
12951;BME280;6540;50.858;7.232;2023-10-31T06:07:55;51909.00;;;-142.34;31.34
12951;BME280;6540;50.858;7.232;2023-10-31T06:10:21;51945.31;;;-142.34;31.72
12951;BME280;6540;50.858;7.232;2023-10-31T06:12:47;51915.06;;;-142.34;32.01
12951;BME280;6540;50.858;7.232;2023-10-31T06:15:12;51913.03;;;-142.34;31.84
12951;BME280;6540;50.858;7.232;2023-10-31T06:17:38;51957.44;;;-142.34;31.16
12951;BME280;6540;50.858;7.232;2023-10-31T06:20:03;51900.94;;;-142.34;32.39
12951;BME280;6540;50.858;7.232;2023-10-31T06:22:32;51915.06;;;-142.34;32.30
12951;BME280;6540;50.858;7.232;2023-10-31T06:24:57;51911.03;;;-142.34;31.82
12951;BME280;6540;50.858;7.232;2023-10-31T06:27:23;51911.03;;;-142.34;33.49
12951;BME280;6540;50.858;7.232;2023-10-31T06:29:48;51894.88;;;-142.34;31.83
12951;BME280;6540;50.858;7.232;2023-10-31T06:32:14;51915.06;;;-142.34;32.15
12951;BME280;6540;50.858;7.232;2023-10-31T06:34:39;51923.13;;;-142.34;31.87
12951;BME280;6540;50.858;7.232;2023-10-31T06:37:07;51896.91;;;-142.34;31.86
12951;BME280;6540;50.858;7.232;2023-10-31T06:39:32;51907.00;;;-142.34;32.62
12951;BME280;6540;50.858;7.232;2023-10-31T06:41:57;51949.34;;;-142.34;32.19
12951;BME280;6540;50.858;7.232;2023-10-31T06:44:23;51941.28;;;-142.34;32.22
12951;BME280;6540;50.858;7.232;2023-10-31T06:46:48;51933.22;;;-142.34;32.70
12951;BME280;6540;50.858;7.232;2023-10-31T06:49:14;51921.13;;;-142.34;32.71
12951;BME280;6540;50.858;7.232;2023-10-31T06:51:39;51919.09;;;-142.34;31.91
12951;BME280;6540;50.858;7.232;2023-10-31T06:54:04;51941.28;;;-142.34;32.65
12951;BME280;6540;50.858;7.232;2023-10-31T06:56:30;51902.97;;;-142.34;32.62
12951;BME280;6540;50.858;7.232;2023-10-31T06:58:55;51898.94;;;-142.34;31.78
12951;BME280;6540;50.858;7.232;2023-10-31T07:01:20;51896.91;;;-142.34;32.67
12951;BME280;6540;50.858;7.232;2023-10-31T07:03:47;51913.03;;;-142.34;31.82
12951;BME280;6540;50.858;7.232;2023-10-31T07:06:12;51913.03;;;-142.34;31.09
12951;BME280;6540;50.858;7.232;2023-10-31T07:08:38;51951.38;;;-142.34;31.77
12951;BME280;6540;50.858;7.232;2023-10-31T07:11:03;51933.22;;;-142.34;32.31
12951;BME280;6540;50.858;7.232;2023-10-31T07:13:30;51902.97;;;-142.34;31.48
12951;BME280;6540;50.858;7.232;2023-10-31T07:15:55;51923.13;;;-142.34;31.36
12951;BME280;6540;50.858;7.232;2023-10-31T07:18:21;51955.41;;;-142.34;31.65
12951;BME280;6540;50.858;7.232;2023-10-31T07:20:46;51890.84;;;-142.34;31.41
12951;BME280;6540;50.858;7.232;2023-10-31T07:23:11;51902.97;;;-142.34;30.96
12951;BME280;6540;50.858;7.232;2023-10-31T07:25:37;51919.09;;;-142.34;31.13
12951;BME280;6540;50.858;7.232;2023-10-31T07:28:02;51943.31;;;-142.34;31.77
12951;BME280;6540;50.858;7.232;2023-10-31T07:30:27;51919.09;;;-142.34;31.22
12951;BME280;6540;50.858;7.232;2023-10-31T07:32:53;51923.13;;;-142.34;32.33
12951;BME280;6540;50.858;7.232;2023-10-31T07:35:18;51882.78;;;-142.34;31.49
12951;BME280;6540;50.858;7.232;2023-10-31T07:37:45;51896.91;;;-142.34;30.82
12951;BME280;6540;50.858;7.232;2023-10-31T07:40:11;51894.88;;;-142.34;31.24
12951;BME280;6540;50.858;7.232;2023-10-31T07:42:36;51909.00;;;-142.34;31.31
12951;BME280;6540;50.858;7.232;2023-10-31T07:45:02;51911.03;;;-142.34;31.43
12951;BME280;6540;50.858;7.232;2023-10-31T07:47:27;51898.94;;;-142.34;31.69
12951;BME280;6540;50.858;7.232;2023-10-31T07:49:53;51904.97;;;-142.34;31.15
12951;BME280;6540;50.858;7.232;2023-10-31T07:52:18;51890.84;;;-142.34;31.97
12951;BME280;6540;50.858;7.232;2023-10-31T07:54:44;51882.78;;;-142.34;30.85
12951;BME280;6540;50.858;7.232;2023-10-31T07:57:09;51909.00;;;-142.34;30.39
12951;BME280;6540;50.858;7.232;2023-10-31T07:59:35;51858.56;;;-142.34;30.87
12951;BME280;6540;50.858;7.232;2023-10-31T08:02:01;51888.84;;;-142.34;30.87
12951;BME280;6540;50.858;7.232;2023-10-31T08:04:26;51931.19;;;-142.34;30.97
12951;BME280;6540;50.858;7.232;2023-10-31T08:06:53;51882.78;;;-142.34;31.15
12951;BME280;6540;50.858;7.232;2023-10-31T08:09:19;51892.88;;;-142.34;30.77
12951;BME280;6540;50.858;7.232;2023-10-31T08:11:44;51854.53;;;-142.34;31.45
12951;BME280;6540;50.858;7.232;2023-10-31T08:14:09;51913.03;;;-142.34;30.92
12951;BME280;6540;50.858;7.232;2023-10-31T08:16:35;51886.81;;;-142.34;31.13
12951;BME280;6540;50.858;7.232;2023-10-31T08:19:01;51915.06;;;-142.34;30.35
12951;BME280;6540;50.858;7.232;2023-10-31T08:21:26;51927.16;;;-142.34;30.75
12951;BME280;6540;50.858;7.232;2023-10-31T08:23:58;51904.97;;;-142.34;30.81
12951;BME280;6540;50.858;7.232;2023-10-31T08:26:23;51878.75;;;-142.34;31.28
12951;BME280;6540;50.858;7.232;2023-10-31T08:28:51;51878.75;;;-142.34;30.67
12951;BME280;6540;50.858;7.232;2023-10-31T08:31:17;51915.06;;;-142.34;29.95
12951;BME280;6540;50.858;7.232;2023-10-31T08:33:42;51915.06;;;-142.34;31.10
12951;BME280;6540;50.858;7.232;2023-10-31T08:36:08;51898.94;;;-142.34;30.65
12951;BME280;6540;50.858;7.232;2023-10-31T08:38:34;51919.09;;;-142.34;31.36
12951;BME280;6540;50.858;7.232;2023-10-31T08:40:59;51874.72;;;-142.34;32.03
12951;BME280;6540;50.858;7.232;2023-10-31T08:43:24;51913.03;;;-142.34;32.06
12951;BME280;6540;50.858;7.232;2023-10-31T08:45:50;51907.00;;;-142.34;30.97
12951;BME280;6540;50.858;7.232;2023-10-31T08:48:15;51907.00;;;-142.34;30.96
12951;BME280;6540;50.858;7.232;2023-10-31T08:50:41;51917.06;;;-142.34;31.82
12951;BME280;6540;50.858;7.232;2023-10-31T08:53:06;51965.50;;;-142.34;32.35
12951;BME280;6540;50.858;7.232;2023-10-31T08:55:31;51923.13;;;-142.34;31.07
12951;BME280;6540;50.858;7.232;2023-10-31T08:57:57;51939.28;;;-142.34;30.99
12951;BME280;6540;50.858;7.232;2023-10-31T09:00:22;51921.13;;;-142.34;31.82
12951;BME280;6540;50.858;7.232;2023-10-31T09:02:48;51931.19;;;-142.34;31.08
12951;BME280;6540;50.858;7.232;2023-10-31T09:05:13;51898.94;;;-142.34;30.43
12951;BME280;6540;50.858;7.232;2023-10-31T09:07:39;51904.97;;;-142.34;30.21
12951;BME280;6540;50.858;7.232;2023-10-31T09:10:04;51886.81;;;-142.34;30.10
12951;BME280;6540;50.858;7.232;2023-10-31T09:12:30;51894.88;;;-142.34;30.84
12951;BME280;6540;50.858;7.232;2023-10-31T09:14:56;51886.81;;;-142.34;31.61
12951;BME280;6540;50.858;7.232;2023-10-31T09:17:21;51876.72;;;-142.34;30.81
12951;BME280;6540;50.858;7.232;2023-10-31T09:19:47;51890.84;;;-142.34;29.95
12951;BME280;6540;50.858;7.232;2023-10-31T09:22:12;51894.88;;;-142.34;30.20
12951;BME280;6540;50.858;7.232;2023-10-31T09:24:37;51854.53;;;-142.34;30.95
12951;BME280;6540;50.858;7.232;2023-10-31T09:27:04;51892.88;;;-142.34;30.42
12951;BME280;6540;50.858;7.232;2023-10-31T09:29:29;51931.19;;;-142.34;30.77
12951;BME280;6540;50.858;7.232;2023-10-31T09:31:54;51886.81;;;-142.34;30.34
12951;BME280;6540;50.858;7.232;2023-10-31T09:34:20;51890.84;;;-142.34;30.17
12951;BME280;6540;50.858;7.232;2023-10-31T09:36:45;51911.03;;;-142.34;30.64
12951;BME280;6540;50.858;7.232;2023-10-31T09:39:10;51927.16;;;-142.34;30.99
12951;BME280;6540;50.858;7.232;2023-10-31T09:41:36;51927.16;;;-142.34;30.87
12951;BME280;6540;50.858;7.232;2023-10-31T09:44:01;51927.16;;;-142.34;30.20
12951;BME280;6540;50.858;7.232;2023-10-31T09:46:28;51886.81;;;-142.34;30.00
12951;BME280;6540;50.858;7.232;2023-10-31T09:48:54;51876.72;;;-142.34;30.60
12951;BME280;6540;50.858;7.232;2023-10-31T09:51:21;51880.78;;;-142.34;30.41
12951;BME280;6540;50.858;7.232;2023-10-31T09:53:47;51870.69;;;-142.34;30.02
12951;BME280;6540;50.858;7.232;2023-10-31T09:56:14;51874.72;;;-142.34;30.66
12951;BME280;6540;50.858;7.232;2023-10-31T09:58:39;51882.78;;;-142.34;30.57
12951;BME280;6540;50.858;7.232;2023-10-31T10:01:06;51870.69;;;-142.34;30.41
12951;BME280;6540;50.858;7.232;2023-10-31T10:03:32;51854.53;;;-142.34;30.36
12951;BME280;6540;50.858;7.232;2023-10-31T10:05:58;51894.88;;;-142.34;30.29
12951;BME280;6540;50.858;7.232;2023-10-31T10:08:23;51880.78;;;-142.34;29.97
12951;BME280;6540;50.858;7.232;2023-10-31T10:10:49;51854.53;;;-142.34;30.52
12951;BME280;6540;50.858;7.232;2023-10-31T10:13:20;51860.59;;;-142.34;30.23
12951;BME280;6540;50.858;7.232;2023-10-31T10:15:47;51884.81;;;-142.34;29.59
12951;BME280;6540;50.858;7.232;2023-10-31T10:18:34;51900.94;;;-142.34;30.15
12951;BME280;6540;50.858;7.232;2023-10-31T10:21:05;51907.00;;;-142.34;29.59
12951;BME280;6540;50.858;7.232;2023-10-31T10:23:31;51894.88;;;-142.34;29.78
12951;BME280;6540;50.858;7.232;2023-10-31T10:25:58;51878.75;;;-142.34;30.33
12951;BME280;6540;50.858;7.232;2023-10-31T10:28:24;51854.53;;;-142.34;29.86
12951;BME280;6540;50.858;7.232;2023-10-31T10:30:51;51864.63;;;-142.34;30.05
12951;BME280;6540;50.858;7.232;2023-10-31T10:33:18;51852.53;;;-142.34;29.84
12951;BME280;6540;50.858;7.232;2023-10-31T10:35:44;51882.78;;;-142.34;30.10
12951;BME280;6540;50.858;7.232;2023-10-31T10:38:16;51850.50;;;-142.34;30.53
12951;BME280;6540;50.858;7.232;2023-10-31T10:40:44;51868.66;;;-142.34;30.55
12951;BME280;6540;50.858;7.232;2023-10-31T10:45:43;51858.56;;;-142.34;29.20
12951;BME280;6540;50.858;7.232;2023-10-31T10:48:13;51878.75;;;-142.34;30.43
12951;BME280;6540;50.858;7.232;2023-10-31T10:50:45;51886.81;;;-142.34;30.77
12951;BME280;6540;50.858;7.232;2023-10-31T10:53:22;51919.09;;;-142.34;31.57
12951;BME280;6540;50.858;7.232;2023-10-31T10:55:55;51892.88;;;-142.34;30.92
12951;BME280;6540;50.858;7.232;2023-10-31T10:59:07;51907.00;;;-142.34;30.44
12951;BME280;6540;50.858;7.232;2023-10-31T11:01:11;51894.88;;;-142.34;29.80
12951;BME280;6540;50.858;7.232;2023-10-31T11:03:38;51890.84;;;-142.34;30.26
12951;BME280;6540;50.858;7.232;2023-10-31T11:06:05;51892.88;;;-142.34;30.31
12951;BME280;6540;50.858;7.232;2023-10-31T11:08:31;51892.88;;;-142.34;30.21
12951;BME280;6540;50.858;7.232;2023-10-31T11:10:57;51890.84;;;-142.34;29.86
12951;BME280;6540;50.858;7.232;2023-10-31T11:13:24;51862.63;;;-142.34;29.80
12951;BME280;6540;50.858;7.232;2023-10-31T11:15:52;51850.50;;;-142.34;29.80
12951;BME280;6540;50.858;7.232;2023-10-31T11:18:19;51935.25;;;-142.34;29.95
12951;BME280;6540;50.858;7.232;2023-10-31T11:20:45;51874.72;;;-142.34;30.53
12951;BME280;6540;50.858;7.232;2023-10-31T11:23:11;51904.97;;;-142.34;30.19
12951;BME280;6540;50.858;7.232;2023-10-31T11:25:42;51874.72;;;-142.34;30.50
12951;BME280;6540;50.858;7.232;2023-10-31T11:28:16;51915.06;;;-142.34;30.04
12951;BME280;6540;50.858;7.232;2023-10-31T11:30:43;51882.78;;;-142.34;30.20
12951;BME280;6540;50.858;7.232;2023-10-31T11:33:14;51915.06;;;-142.34;30.46
12951;BME280;6540;50.858;7.232;2023-10-31T11:35:40;51907.00;;;-142.34;30.57
12951;BME280;6540;50.858;7.232;2023-10-31T11:38:07;51846.47;;;-142.34;29.72
12951;BME280;6540;50.858;7.232;2023-10-31T11:40:37;51894.88;;;-142.34;29.72
12951;BME280;6540;50.858;7.232;2023-10-31T11:43:04;51874.72;;;-142.34;29.19
12951;BME280;6540;50.858;7.232;2023-10-31T11:47:58;51878.75;;;-142.34;30.32
12951;BME280;6540;50.858;7.232;2023-10-31T11:50:24;51882.78;;;-142.34;30.20
12951;BME280;6540;50.858;7.232;2023-10-31T11:55:25;51904.97;;;-142.34;30.48
12951;BME280;6540;50.858;7.232;2023-10-31T11:57:51;51884.81;;;-142.34;30.81
12951;BME280;6540;50.858;7.232;2023-10-31T12:00:21;51927.16;;;-142.34;29.73
12951;BME280;6540;50.858;7.232;2023-10-31T12:03:00;51888.84;;;-142.34;29.41
12951;BME280;6540;50.858;7.232;2023-10-31T12:05:26;51892.88;;;-142.34;30.57
12951;BME280;6540;50.858;7.232;2023-10-31T12:07:51;51880.78;;;-142.34;30.38
12951;BME280;6540;50.858;7.232;2023-10-31T12:10:25;51911.03;;;-142.34;30.17
12951;BME280;6540;50.858;7.232;2023-10-31T12:12:52;51911.03;;;-142.34;30.24
12951;BME280;6540;50.858;7.232;2023-10-31T12:15:17;51874.72;;;-142.34;30.08
12951;BME280;6540;50.858;7.232;2023-10-31T12:17:43;51902.97;;;-142.34;30.19
12951;BME280;6540;50.858;7.232;2023-10-31T12:20:08;51894.88;;;-142.34;30.45
12951;BME280;6540;50.858;7.232;2023-10-31T12:22:35;51870.69;;;-142.34;30.76
12951;BME280;6540;50.858;7.232;2023-10-31T12:27:45;51890.84;;;-142.34;30.53
12951;BME280;6540;50.858;7.232;2023-10-31T12:30:11;51862.63;;;-142.34;31.09
12951;BME280;6540;50.858;7.232;2023-10-31T12:32:38;51850.50;;;-142.34;30.28
12951;BME280;6540;50.858;7.232;2023-10-31T12:35:04;51898.94;;;-142.34;30.02
12951;BME280;6540;50.858;7.232;2023-10-31T12:37:30;51874.72;;;-142.34;29.95
12951;BME280;6540;50.858;7.232;2023-10-31T12:39:57;51874.72;;;-142.34;30.27
12951;BME280;6540;50.858;7.232;2023-10-31T12:42:23;51890.84;;;-142.34;30.64
12951;BME280;6540;50.858;7.232;2023-10-31T12:44:54;51856.56;;;-142.34;30.70
12951;BME280;6540;50.858;7.232;2023-10-31T12:47:23;51878.75;;;-142.34;29.75
12951;BME280;6540;50.858;7.232;2023-10-31T12:52:54;51858.56;;;-142.34;28.91
12951;BME280;6540;50.858;7.232;2023-10-31T12:55:22;51874.72;;;-142.34;29.43
12951;BME280;6540;50.858;7.232;2023-10-31T12:57:48;51870.69;;;-142.34;29.58